sensor_id;sensor_type;location;lat;lon;timestamp;pressure;altitude;pressure_sealevel;temperature
61977;BMP280;45905;50.570;10.428;2022-10-31T00:01:34;98443.81;;;11.52
61977;BMP280;45905;50.570;10.428;2022-10-31T00:04:01;98454.25;;;11.49
61977;BMP280;45905;50.570;10.428;2022-10-31T00:06:29;98451.03;;;11.47
61977;BMP280;45905;50.570;10.428;2022-10-31T00:08:59;98446.28;;;11.44
61977;BMP280;45905;50.570;10.428;2022-10-31T00:11:27;98446.56;;;11.41
61977;BMP280;45905;50.570;10.428;2022-10-31T00:13:54;98451.66;;;11.41
61977;BMP280;45905;50.570;10.428;2022-10-31T00:16:25;98452.59;;;11.40
61977;BMP280;45905;50.570;10.428;2022-10-31T00:18:55;98453.53;;;11.39
61977;BMP280;45905;50.570;10.428;2022-10-31T00:21:24;98452.09;;;11.37
61977;BMP280;45905;50.570;10.428;2022-10-31T00:23:53;98449.72;;;11.35
61977;BMP280;45905;50.570;10.428;2022-10-31T00:26:20;98455.19;;;11.31
61977;BMP280;45905;50.570;10.428;2022-10-31T00:28:48;98459.63;;;11.29
61977;BMP280;45905;50.570;10.428;2022-10-31T00:31:15;98454.69;;;11.27
61977;BMP280;45905;50.570;10.428;2022-10-31T00:33:43;98457.50;;;11.24
61977;BMP280;45905;50.570;10.428;2022-10-31T00:36:14;98456.84;;;11.23
61977;BMP280;45905;50.570;10.428;2022-10-31T00:38:43;98465.41;;;11.22
61977;BMP280;45905;50.570;10.428;2022-10-31T00:41:13;98454.75;;;11.18
61977;BMP280;45905;50.570;10.428;2022-10-31T00:43:42;98448.91;;;11.18
61977;BMP280;45905;50.570;10.428;2022-10-31T00:46:10;98464.25;;;11.16
61977;BMP280;45905;50.570;10.428;2022-10-31T00:48:38;98459.59;;;11.12
61977;BMP280;45905;50.570;10.428;2022-10-31T00:51:05;98458.84;;;11.11
61977;BMP280;45905;50.570;10.428;2022-10-31T00:53:32;98452.00;;;11.12
61977;BMP280;45905;50.570;10.428;2022-10-31T00:55:59;98462.13;;;11.12
61977;BMP280;45905;50.570;10.428;2022-10-31T00:58:27;98452.97;;;11.11
61977;BMP280;45905;50.570;10.428;2022-10-31T01:00:55;98451.38;;;11.10
61977;BMP280;45905;50.570;10.428;2022-10-31T01:03:25;98447.22;;;11.09
61977;BMP280;45905;50.570;10.428;2022-10-31T01:06:01;98444.03;;;11.07
61977;BMP280;45905;50.570;10.428;2022-10-31T01:08:31;98450.63;;;11.00
61977;BMP280;45905;50.570;10.428;2022-10-31T01:11:13;98442.50;;;10.97
61977;BMP280;45905;50.570;10.428;2022-10-31T01:13:41;98447.72;;;10.95
61977;BMP280;45905;50.570;10.428;2022-10-31T01:16:13;98441.38;;;10.91
61977;BMP280;45905;50.570;10.428;2022-10-31T01:18:41;98447.00;;;10.86
61977;BMP280;45905;50.570;10.428;2022-10-31T01:21:16;98440.63;;;10.82
61977;BMP280;45905;50.570;10.428;2022-10-31T01:23:44;98436.63;;;10.79
61977;BMP280;45905;50.570;10.428;2022-10-31T01:26:17;98442.50;;;10.80
61977;BMP280;45905;50.570;10.428;2022-10-31T01:29:19;98436.78;;;10.78
61977;BMP280;45905;50.570;10.428;2022-10-31T01:31:46;98440.25;;;10.77
61977;BMP280;45905;50.570;10.428;2022-10-31T01:34:16;98433.88;;;10.73
61977;BMP280;45905;50.570;10.428;2022-10-31T01:36:45;98434.16;;;10.70
61977;BMP280;45905;50.570;10.428;2022-10-31T01:39:15;98446.84;;;10.70
61977;BMP280;45905;50.570;10.428;2022-10-31T01:41:48;98443.63;;;10.68
61977;BMP280;45905;50.570;10.428;2022-10-31T01:49:38;98448.00;;;10.58
61977;BMP280;45905;50.570;10.428;2022-10-31T01:52:30;98438.81;;;10.57
61977;BMP280;45905;50.570;10.428;2022-10-31T01:55:09;98445.75;;;10.55
61977;BMP280;45905;50.570;10.428;2022-10-31T01:57:40;98452.69;;;10.53
61977;BMP280;45905;50.570;10.428;2022-10-31T02:00:11;98454.41;;;10.53
61977;BMP280;45905;50.570;10.428;2022-10-31T02:02:43;98442.81;;;10.50
61977;BMP280;45905;50.570;10.428;2022-10-31T02:05:23;98448.84;;;10.49
61977;BMP280;45905;50.570;10.428;2022-10-31T02:08:13;98453.13;;;10.49
61977;BMP280;45905;50.570;10.428;2022-10-31T02:10:43;98453.13;;;10.49
61977;BMP280;45905;50.570;10.428;2022-10-31T02:13:12;98448.19;;;10.48
61977;BMP280;45905;50.570;10.428;2022-10-31T02:15:49;98449.91;;;10.47
61977;BMP280;45905;50.570;10.428;2022-10-31T02:18:19;98460.38;;;10.35
61977;BMP280;45905;50.570;10.428;2022-10-31T02:23:59;98462.53;;;10.30
61977;BMP280;45905;50.570;10.428;2022-10-31T02:27:09;98468.41;;;10.30
61977;BMP280;45905;50.570;10.428;2022-10-31T02:31:11;98470.50;;;10.35
61977;BMP280;45905;50.570;10.428;2022-10-31T02:33:43;98456.91;;;10.36
61977;BMP280;45905;50.570;10.428;2022-10-31T02:39:15;98452.50;;;10.38
61977;BMP280;45905;50.570;10.428;2022-10-31T02:42:07;98453.44;;;10.37
61977;BMP280;45905;50.570;10.428;2022-10-31T02:44:50;98451.69;;;10.37
61977;BMP280;45905;50.570;10.428;2022-10-31T02:47:38;98446.50;;;10.39
61977;BMP280;45905;50.570;10.428;2022-10-31T02:50:12;98440.38;;;10.41
61977;BMP280;45905;50.570;10.428;2022-10-31T02:52:40;98452.72;;;10.44
61977;BMP280;45905;50.570;10.428;2022-10-31T02:58:11;98447.53;;;10.46
61977;BMP280;45905;50.570;10.428;2022-10-31T03:04:26;98449.31;;;10.36
61977;BMP280;45905;50.570;10.428;2022-10-31T03:07:24;98450.53;;;10.32
61977;BMP280;45905;50.570;10.428;2022-10-31T03:16:06;98463.44;;;10.38
61977;BMP280;45905;50.570;10.428;2022-10-31T03:18:44;98460.09;;;10.38
61977;BMP280;45905;50.570;10.428;2022-10-31T03:21:25;98451.56;;;10.39
61977;BMP280;45905;50.570;10.428;2022-10-31T03:23:55;98450.63;;;10.40
61977;BMP280;45905;50.570;10.428;2022-10-31T03:26:24;98459.81;;;10.41
61977;BMP280;45905;50.570;10.428;2022-10-31T03:29:05;98464.91;;;10.41
61977;BMP280;45905;50.570;10.428;2022-10-31T03:31:43;98449.84;;;10.39
61977;BMP280;45905;50.570;10.428;2022-10-31T03:34:15;98453.16;;;10.40
61977;BMP280;45905;50.570;10.428;2022-10-31T03:36:46;98456.63;;;10.39
61977;BMP280;45905;50.570;10.428;2022-10-31T03:39:19;98463.44;;;10.38
61977;BMP280;45905;50.570;10.428;2022-10-31T03:42:08;98460.91;;;10.38
61977;BMP280;45905;50.570;10.428;2022-10-31T03:44:39;98461.97;;;10.36
61977;BMP280;45905;50.570;10.428;2022-10-31T03:47:08;98464.50;;;10.36
61977;BMP280;45905;50.570;10.428;2022-10-31T03:49:35;98463.84;;;10.34
61977;BMP280;45905;50.570;10.428;2022-10-31T03:55:41;98465.75;;;10.32
61977;BMP280;45905;50.570;10.428;2022-10-31T03:58:39;98467.59;;;10.30
61977;BMP280;45905;50.570;10.428;2022-10-31T04:01:15;98471.06;;;10.29
61977;BMP280;45905;50.570;10.428;2022-10-31T04:03:45;98472.28;;;10.25
61977;BMP280;45905;50.570;10.428;2022-10-31T04:06:15;98473.06;;;10.26
61977;BMP280;45905;50.570;10.428;2022-10-31T04:09:05;98472.28;;;10.25
61977;BMP280;45905;50.570;10.428;2022-10-31T04:11:45;98461.50;;;10.23
61977;BMP280;45905;50.570;10.428;2022-10-31T04:14:41;98463.66;;;10.18
61977;BMP280;45905;50.570;10.428;2022-10-31T04:17:14;98468.72;;;10.18
61977;BMP280;45905;50.570;10.428;2022-10-31T04:19:43;98465.38;;;10.18
61977;BMP280;45905;50.570;10.428;2022-10-31T04:22:10;98472.47;;;10.14
61977;BMP280;45905;50.570;10.428;2022-10-31T04:24:40;98460.75;;;10.13
61977;BMP280;45905;50.570;10.428;2022-10-31T04:27:10;98469.28;;;10.12
61977;BMP280;45905;50.570;10.428;2022-10-31T04:29:37;98472.75;;;10.11
61977;BMP280;45905;50.570;10.428;2022-10-31T04:32:04;98475.53;;;10.09
61977;BMP280;45905;50.570;10.428;2022-10-31T04:34:31;98469.03;;;10.06
61977;BMP280;45905;50.570;10.428;2022-10-31T04:36:58;98466.66;;;10.05
61977;BMP280;45905;50.570;10.428;2022-10-31T04:39:27;98469.19;;;10.05
61977;BMP280;45905;50.570;10.428;2022-10-31T04:42:17;98468.50;;;10.03
61977;BMP280;45905;50.570;10.428;2022-10-31T04:44:44;98460.25;;;10.01
61977;BMP280;45905;50.570;10.428;2022-10-31T04:47:11;98464.81;;;9.97
61977;BMP280;45905;50.570;10.428;2022-10-31T04:49:38;98469.06;;;9.97
61977;BMP280;45905;50.570;10.428;2022-10-31T04:52:06;98467.47;;;9.96
61977;BMP280;45905;50.570;10.428;2022-10-31T04:54:34;98467.47;;;9.96
61977;BMP280;45905;50.570;10.428;2022-10-31T04:57:22;98472.53;;;9.96
61977;BMP280;45905;50.570;10.428;2022-10-31T04:59:49;98465.06;;;9.94
61977;BMP280;45905;50.570;10.428;2022-10-31T05:02:16;98466.69;;;9.95
61977;BMP280;45905;50.570;10.428;2022-10-31T05:04:49;98462.69;;;9.93
61977;BMP280;45905;50.570;10.428;2022-10-31T05:07:17;98455.22;;;9.91
61977;BMP280;45905;50.570;10.428;2022-10-31T05:09:44;98460.41;;;9.90
61977;BMP280;45905;50.570;10.428;2022-10-31T05:12:13;98449.91;;;9.85
61977;BMP280;45905;50.570;10.428;2022-10-31T05:15:20;98452.59;;;9.84
61977;BMP280;45905;50.570;10.428;2022-10-31T05:18:25;98453.66;;;9.81
61977;BMP280;45905;50.570;10.428;2022-10-31T05:21:10;98460.59;;;9.79
61977;BMP280;45905;50.570;10.428;2022-10-31T05:23:43;98456.47;;;9.78
61977;BMP280;45905;50.570;10.428;2022-10-31T05:26:14;98452.31;;;9.77
61977;BMP280;45905;50.570;10.428;2022-10-31T05:28:41;98451.66;;;9.75
61977;BMP280;45905;50.570;10.428;2022-10-31T05:31:08;98442.47;;;9.74
61977;BMP280;45905;50.570;10.428;2022-10-31T05:33:35;98438.47;;;9.72
61977;BMP280;45905;50.570;10.428;2022-10-31T05:36:08;98444.47;;;9.71
61977;BMP280;45905;50.570;10.428;2022-10-31T05:38:58;98449.94;;;9.67
61977;BMP280;45905;50.570;10.428;2022-10-31T05:41:30;98441.56;;;9.66
61977;BMP280;45905;50.570;10.428;2022-10-31T05:44:08;98447.28;;;9.68
61977;BMP280;45905;50.570;10.428;2022-10-31T05:46:50;98448.06;;;9.69
61977;BMP280;45905;50.570;10.428;2022-10-31T05:49:37;98449.00;;;9.68
61977;BMP280;45905;50.570;10.428;2022-10-31T05:52:22;98448.47;;;9.64
61977;BMP280;45905;50.570;10.428;2022-10-31T05:54:57;98443.56;;;9.63
61977;BMP280;45905;50.570;10.428;2022-10-31T05:57:24;98444.63;;;9.60
61977;BMP280;45905;50.570;10.428;2022-10-31T05:59:52;98449.81;;;9.59
61977;BMP280;45905;50.570;10.428;2022-10-31T06:02:23;98448.09;;;9.59
61977;BMP280;45905;50.570;10.428;2022-10-31T06:05:09;98451.56;;;9.58
61977;BMP280;45905;50.570;10.428;2022-10-31T06:07:36;98449.81;;;9.59
61977;BMP280;45905;50.570;10.428;2022-10-31T06:10:06;98446.50;;;9.58
61977;BMP280;45905;50.570;10.428;2022-10-31T06:12:35;98452.22;;;9.60
61977;BMP280;45905;50.570;10.428;2022-10-31T06:15:16;98450.19;;;9.64
61977;BMP280;45905;50.570;10.428;2022-10-31T06:18:05;98452.59;;;9.65
61977;BMP280;45905;50.570;10.428;2022-10-31T06:20:36;98451.41;;;9.69
61977;BMP280;45905;50.570;10.428;2022-10-31T06:23:04;98453.00;;;9.70
61977;BMP280;45905;50.570;10.428;2022-10-31T06:25:33;98456.34;;;9.71
61977;BMP280;45905;50.570;10.428;2022-10-31T06:28:00;98453.00;;;9.70
61977;BMP280;45905;50.570;10.428;2022-10-31T06:30:36;98457.53;;;9.67
61977;BMP280;45905;50.570;10.428;2022-10-31T06:33:04;98469.78;;;9.62
61977;BMP280;45905;50.570;10.428;2022-10-31T06:35:35;98469.13;;;9.60
61977;BMP280;45905;50.570;10.428;2022-10-31T06:38:02;98477.09;;;9.55
61977;BMP280;45905;50.570;10.428;2022-10-31T06:40:36;98474.75;;;9.54
61977;BMP280;45905;50.570;10.428;2022-10-31T06:43:24;98477.28;;;9.54
61977;BMP280;45905;50.570;10.428;2022-10-31T06:46:06;98472.84;;;9.56
61977;BMP280;45905;50.570;10.428;2022-10-31T06:48:46;98479.25;;;9.60
61977;BMP280;45905;50.570;10.428;2022-10-31T06:51:33;98474.69;;;9.63
61977;BMP280;45905;50.570;10.428;2022-10-31T06:54:01;98486.72;;;9.61
61977;BMP280;45905;50.570;10.428;2022-10-31T06:56:28;98485.47;;;9.65
61977;BMP280;45905;50.570;10.428;2022-10-31T06:58:57;98491.22;;;9.67
61977;BMP280;45905;50.570;10.428;2022-10-31T07:01:53;98500.53;;;9.67
61977;BMP280;45905;50.570;10.428;2022-10-31T07:04:20;98495.47;;;9.67
61977;BMP280;45905;50.570;10.428;2022-10-31T07:06:50;98495.34;;;9.68
61977;BMP280;45905;50.570;10.428;2022-10-31T07:09:19;98492.94;;;9.67
61977;BMP280;45905;50.570;10.428;2022-10-31T07:11:47;98502.66;;;9.71
61977;BMP280;45905;50.570;10.428;2022-10-31T07:14:14;98500.94;;;9.72
61977;BMP280;45905;50.570;10.428;2022-10-31T07:16:41;98494.13;;;9.72
61977;BMP280;45905;50.570;10.428;2022-10-31T07:19:11;98501.88;;;9.71
61977;BMP280;45905;50.570;10.428;2022-10-31T07:21:38;98497.75;;;9.70
61977;BMP280;45905;50.570;10.428;2022-10-31T07:24:06;98508.53;;;9.72
61977;BMP280;45905;50.570;10.428;2022-10-31T07:26:42;98506.94;;;9.71
61977;BMP280;45905;50.570;10.428;2022-10-31T07:29:10;98509.47;;;9.71
61977;BMP280;45905;50.570;10.428;2022-10-31T07:31:37;98513.72;;;9.70
61977;BMP280;45905;50.570;10.428;2022-10-31T07:34:12;98517.03;;;9.71
61977;BMP280;45905;50.570;10.428;2022-10-31T07:37:02;98518.91;;;9.69
61977;BMP280;45905;50.570;10.428;2022-10-31T07:39:29;98516.50;;;9.67
61977;BMP280;45905;50.570;10.428;2022-10-31T07:41:58;98525.56;;;9.70
61977;BMP280;45905;50.570;10.428;2022-10-31T07:44:26;98530.34;;;9.72
61977;BMP280;45905;50.570;10.428;2022-10-31T07:47:22;98525.44;;;9.71
61977;BMP280;45905;50.570;10.428;2022-10-31T07:50:11;98518.66;;;9.72
61977;BMP280;45905;50.570;10.428;2022-10-31T07:53:13;98514.53;;;9.71
61977;BMP280;45905;50.570;10.428;2022-10-31T07:55:51;98516.75;;;9.73
61977;BMP280;45905;50.570;10.428;2022-10-31T07:58:18;98505.56;;;9.76
61977;BMP280;45905;50.570;10.428;2022-10-31T08:00:47;98507.75;;;9.80
61977;BMP280;45905;50.570;10.428;2022-10-31T08:03:21;98502.69;;;9.80
61977;BMP280;45905;50.570;10.428;2022-10-31T08:06:07;98498.38;;;9.81
61977;BMP280;45905;50.570;10.428;2022-10-31T08:08:52;98494.81;;;9.83
61977;BMP280;45905;50.570;10.428;2022-10-31T08:11:19;98491.22;;;9.86
61977;BMP280;45905;50.570;10.428;2022-10-31T08:13:47;98488.53;;;9.87
61977;BMP280;45905;50.570;10.428;2022-10-31T08:16:14;98493.97;;;9.92
61977;BMP280;45905;50.570;10.428;2022-10-31T08:18:50;98493.72;;;9.95
61977;BMP280;45905;50.570;10.428;2022-10-31T08:21:18;98483.16;;;9.99
61977;BMP280;45905;50.570;10.428;2022-10-31T08:23:46;98492.22;;;10.02
61977;BMP280;45905;50.570;10.428;2022-10-31T08:26:14;98491.28;;;10.03
61977;BMP280;45905;50.570;10.428;2022-10-31T08:28:42;98480.91;;;10.06
61977;BMP280;45905;50.570;10.428;2022-10-31T08:31:09;98484.88;;;10.08
61977;BMP280;45905;50.570;10.428;2022-10-31T08:33:39;98481.94;;;10.12
61977;BMP280;45905;50.570;10.428;2022-10-31T08:36:19;98490.03;;;10.16
61977;BMP280;45905;50.570;10.428;2022-10-31T08:38:58;98483.91;;;10.18
61977;BMP280;45905;50.570;10.428;2022-10-31T08:41:29;98479.50;;;10.20
61977;BMP280;45905;50.570;10.428;2022-10-31T08:43:58;98477.63;;;10.22
61977;BMP280;45905;50.570;10.428;2022-10-31T08:46:25;98480.97;;;10.23
61977;BMP280;45905;50.570;10.428;2022-10-31T08:48:52;98485.59;;;10.27
61977;BMP280;45905;50.570;10.428;2022-10-31T08:51:20;98478.66;;;10.29
61977;BMP280;45905;50.570;10.428;2022-10-31T08:53:51;98469.84;;;10.33
61977;BMP280;45905;50.570;10.428;2022-10-31T08:56:54;98468.41;;;10.30
61977;BMP280;45905;50.570;10.428;2022-10-31T08:59:37;98472.66;;;10.30
61977;BMP280;45905;50.570;10.428;2022-10-31T09:02:22;98472.94;;;10.27
61977;BMP280;45905;50.570;10.428;2022-10-31T09:04:53;98473.88;;;10.26
61977;BMP280;45905;50.570;10.428;2022-10-31T09:07:20;98465.22;;;10.29
61977;BMP280;45905;50.570;10.428;2022-10-31T09:09:48;98464.13;;;10.31
61977;BMP280;45905;50.570;10.428;2022-10-31T09:12:16;98456.25;;;10.34
61977;BMP280;45905;50.570;10.428;2022-10-31T09:15:01;98458.22;;;10.40
61977;BMP280;45905;50.570;10.428;2022-10-31T09:17:52;98457.28;;;10.41
61977;BMP280;45905;50.570;10.428;2022-10-31T09:20:35;98457.28;;;10.41
61977;BMP280;45905;50.570;10.428;2022-10-31T09:23:12;98456.31;;;10.42
61977;BMP280;45905;50.570;10.428;2022-10-31T09:25:41;98454.97;;;10.47
61977;BMP280;45905;50.570;10.428;2022-10-31T09:28:33;98453.63;;;10.52
61977;BMP280;45905;50.570;10.428;2022-10-31T09:31:06;98455.72;;;10.57
61977;BMP280;45905;50.570;10.428;2022-10-31T09:33:49;98457.03;;;10.61
61977;BMP280;45905;50.570;10.428;2022-10-31T09:36:42;98449.69;;;10.67
61977;BMP280;45905;50.570;10.428;2022-10-31T09:39:17;98445.41;;;10.85
61977;BMP280;45905;50.570;10.428;2022-10-31T09:45:39;98440.34;;;11.02
61977;BMP280;45905;50.570;10.428;2022-10-31T09:48:42;98438.03;;;11.08
61977;BMP280;45905;50.570;10.428;2022-10-31T09:51:37;98438.44;;;11.21
61977;BMP280;45905;50.570;10.428;2022-10-31T09:54:25;98433.84;;;11.33
61977;BMP280;45905;50.570;10.428;2022-10-31T09:56:56;98434.25;;;11.46
61977;BMP280;45905;50.570;10.428;2022-10-31T09:59:39;98425.75;;;11.55
61977;BMP280;45905;50.570;10.428;2022-10-31T10:02:38;98425.19;;;11.68
61977;BMP280;45905;50.570;10.428;2022-10-31T10:05:12;98427.81;;;11.84
61977;BMP280;45905;50.570;10.428;2022-10-31T10:08:15;98422.31;;;11.88
61977;BMP280;45905;50.570;10.428;2022-10-31T10:11:56;98416.47;;;11.96
61977;BMP280;45905;50.570;10.428;2022-10-31T10:14:51;98414.47;;;12.07
61977;BMP280;45905;50.570;10.428;2022-10-31T10:17:37;98403.41;;;12.16
61977;BMP280;45905;50.570;10.428;2022-10-31T10:25:40;98411.28;;;12.45
61977;BMP280;45905;50.570;10.428;2022-10-31T10:28:33;98401.63;;;12.57
61977;BMP280;45905;50.570;10.428;2022-10-31T10:31:16;98401.22;;;12.69
61977;BMP280;45905;50.570;10.428;2022-10-31T10:37:03;98385.97;;;12.84
61977;BMP280;45905;50.570;10.428;2022-10-31T10:39:42;98388.22;;;12.95
61977;BMP280;45905;50.570;10.428;2022-10-31T10:42:15;98383.75;;;13.05
61977;BMP280;45905;50.570;10.428;2022-10-31T10:45:21;98389.31;;;13.16
61977;BMP280;45905;50.570;10.428;2022-10-31T10:48:44;98382.00;;;13.29
61977;BMP280;45905;50.570;10.428;2022-10-31T10:51:27;98379.44;;;13.36
61977;BMP280;45905;50.570;10.428;2022-10-31T10:54:33;98375.78;;;13.47
61977;BMP280;45905;50.570;10.428;2022-10-31T11:00:22;98366.66;;;13.68
61977;BMP280;45905;50.570;10.428;2022-10-31T11:02:51;98363.13;;;13.76
61977;BMP280;45905;50.570;10.428;2022-10-31T11:05:36;98362.50;;;13.90
61977;BMP280;45905;50.570;10.428;2022-10-31T11:08:05;98360.19;;;14.03
61977;BMP280;45905;50.570;10.428;2022-10-31T11:10:33;98352.53;;;14.11
61977;BMP280;45905;50.570;10.428;2022-10-31T11:13:22;98339.31;;;14.15
61977;BMP280;45905;50.570;10.428;2022-10-31T11:18:37;98346.22;;;14.29
61977;BMP280;45905;50.570;10.428;2022-10-31T11:21:05;98329.13;;;14.37
61977;BMP280;45905;50.570;10.428;2022-10-31T11:23:33;98333.06;;;14.47
61977;BMP280;45905;50.570;10.428;2022-10-31T11:26:04;98338.09;;;14.55
61977;BMP280;45905;50.570;10.428;2022-10-31T11:28:33;98329.59;;;14.62
61977;BMP280;45905;50.570;10.428;2022-10-31T11:31:15;98322.88;;;14.69
61977;BMP280;45905;50.570;10.428;2022-10-31T11:33:48;98323.94;;;14.74
61977;BMP280;45905;50.570;10.428;2022-10-31T11:36:26;98318.94;;;14.81
61977;BMP280;45905;50.570;10.428;2022-10-31T11:38:55;98315.19;;;14.91
61977;BMP280;45905;50.570;10.428;2022-10-31T11:41:34;98318.81;;;15.04
61977;BMP280;45905;50.570;10.428;2022-10-31T11:44:19;98313.47;;;15.13
61977;BMP280;45905;50.570;10.428;2022-10-31T11:46:59;98320.06;;;15.22
61977;BMP280;45905;50.570;10.428;2022-10-31T11:49:41;98311.09;;;15.26
61977;BMP280;45905;50.570;10.428;2022-10-31T11:52:25;98304.78;;;15.36
61977;BMP280;45905;50.570;10.428;2022-10-31T11:55:14;98304.34;;;15.47
61977;BMP280;45905;50.570;10.428;2022-10-31T11:57:51;98295.78;;;15.54
61977;BMP280;45905;50.570;10.428;2022-10-31T12:00:26;98290.94;;;15.59
61977;BMP280;45905;50.570;10.428;2022-10-31T12:06:38;98286.25;;;15.77
61977;BMP280;45905;50.570;10.428;2022-10-31T12:09:26;98280.69;;;15.87
61977;BMP280;45905;50.570;10.428;2022-10-31T12:12:19;98275.31;;;15.97
61977;BMP280;45905;50.570;10.428;2022-10-31T12:24:11;98263.47;;;16.24
61977;BMP280;45905;50.570;10.428;2022-10-31T12:50:42;98219.00;;;16.86
61977;BMP280;45905;50.570;10.428;2022-10-31T12:53:40;98219.66;;;16.95
61977;BMP280;45905;50.570;10.428;2022-10-31T12:56:39;98212.81;;;17.01
61977;BMP280;45905;50.570;10.428;2022-10-31T12:59:31;98208.91;;;17.05
61977;BMP280;45905;50.570;10.428;2022-10-31T13:02:25;98197.91;;;17.11
61977;BMP280;45905;50.570;10.428;2022-10-31T13:04:57;98196.75;;;17.14
61977;BMP280;45905;50.570;10.428;2022-10-31T13:07:39;98195.22;;;17.19
61977;BMP280;45905;50.570;10.428;2022-10-31T13:10:19;98184.59;;;17.22
61977;BMP280;45905;50.570;10.428;2022-10-31T13:12:53;98185.78;;;17.26
61977;BMP280;45905;50.570;10.428;2022-10-31T13:15:46;98180.72;;;17.32
61977;BMP280;45905;50.570;10.428;2022-10-31T13:18:27;98179.16;;;17.38
61977;BMP280;45905;50.570;10.428;2022-10-31T13:20:59;98182.72;;;17.43
61977;BMP280;45905;50.570;10.428;2022-10-31T13:23:37;98177.03;;;17.47
61977;BMP280;45905;50.570;10.428;2022-10-31T13:31:40;98174.91;;;17.57
61977;BMP280;45905;50.570;10.428;2022-10-31T13:34:52;98157.59;;;17.59
61977;BMP280;45905;50.570;10.428;2022-10-31T13:37:38;98160.16;;;17.65
61977;BMP280;45905;50.570;10.428;2022-10-31T13:40:51;98152.06;;;17.68
61977;BMP280;45905;50.570;10.428;2022-10-31T13:43:50;98154.44;;;17.70
61977;BMP280;45905;50.570;10.428;2022-10-31T13:46:37;98147.38;;;17.72
61977;BMP280;45905;50.570;10.428;2022-10-31T13:52:15;98145.22;;;17.75
61977;BMP280;45905;50.570;10.428;2022-10-31T13:54:47;98147.59;;;17.76
61977;BMP280;45905;50.570;10.428;2022-10-31T13:57:41;98141.44;;;17.77
61977;BMP280;45905;50.570;10.428;2022-10-31T14:02:53;98147.00;;;17.81
61977;BMP280;45905;50.570;10.428;2022-10-31T14:05:28;98129.84;;;17.81
61977;BMP280;45905;50.570;10.428;2022-10-31T14:08:00;98136.56;;;17.82
61977;BMP280;45905;50.570;10.428;2022-10-31T14:10:35;98126.31;;;17.82
61977;BMP280;45905;50.570;10.428;2022-10-31T14:13:31;98122.94;;;17.82
61977;BMP280;45905;50.570;10.428;2022-10-31T14:16:06;98125.53;;;17.82
61977;BMP280;45905;50.570;10.428;2022-10-31T14:18:48;98130.84;;;17.80
61977;BMP280;45905;50.570;10.428;2022-10-31T14:23:52;98118.22;;;17.79
61977;BMP280;45905;50.570;10.428;2022-10-31T14:31:53;98115.84;;;17.77
61977;BMP280;45905;50.570;10.428;2022-10-31T14:34:29;98104.03;;;17.76
61977;BMP280;45905;50.570;10.428;2022-10-31T14:49:03;98097.28;;;17.69
61977;BMP280;45905;50.570;10.428;2022-10-31T14:51:43;98094.94;;;17.68
61977;BMP280;45905;50.570;10.428;2022-10-31T14:54:34;98089.22;;;17.66
61977;BMP280;45905;50.570;10.428;2022-10-31T14:57:12;98090.41;;;17.63
61977;BMP280;45905;50.570;10.428;2022-10-31T14:59:47;98082.28;;;17.60
61977;BMP280;45905;50.570;10.428;2022-10-31T15:02:40;98081.91;;;17.57
61977;BMP280;45905;50.570;10.428;2022-10-31T15:05:12;98083.88;;;17.55
61977;BMP280;45905;50.570;10.428;2022-10-31T15:07:52;98074.78;;;17.52
61977;BMP280;45905;50.570;10.428;2022-10-31T15:10:30;98076.97;;;17.49
61977;BMP280;45905;50.570;10.428;2022-10-31T15:13:31;98081.66;;;17.45
61977;BMP280;45905;50.570;10.428;2022-10-31T15:15:58;98069.25;;;17.42
61977;BMP280;45905;50.570;10.428;2022-10-31T15:18:27;98060.19;;;17.40
61977;BMP280;45905;50.570;10.428;2022-10-31T15:20:56;98053.09;;;17.36
61977;BMP280;45905;50.570;10.428;2022-10-31T15:23:29;98056.22;;;17.31
61977;BMP280;45905;50.570;10.428;2022-10-31T15:26:03;98050.69;;;17.28
61977;BMP280;45905;50.570;10.428;2022-10-31T15:28:31;98050.31;;;17.24
61977;BMP280;45905;50.570;10.428;2022-10-31T15:31:01;98053.25;;;17.21
61977;BMP280;45905;50.570;10.428;2022-10-31T15:33:41;98049.66;;;17.16
61977;BMP280;45905;50.570;10.428;2022-10-31T15:36:24;98054.94;;;17.08
61977;BMP280;45905;50.570;10.428;2022-10-31T15:38:56;98059.69;;;17.05
61977;BMP280;45905;50.570;10.428;2022-10-31T15:41:51;98054.94;;;17.02
61977;BMP280;45905;50.570;10.428;2022-10-31T15:44:31;98055.53;;;16.98
61977;BMP280;45905;50.570;10.428;2022-10-31T15:47:05;98054.47;;;16.92
61977;BMP280;45905;50.570;10.428;2022-10-31T15:49:42;98054.06;;;16.89
61977;BMP280;45905;50.570;10.428;2022-10-31T15:55:14;98050.88;;;16.80
61977;BMP280;45905;50.570;10.428;2022-10-31T15:57:55;98038.66;;;16.76
61977;BMP280;45905;50.570;10.428;2022-10-31T16:00:35;98040.22;;;16.71
61977;BMP280;45905;50.570;10.428;2022-10-31T16:05:52;98032.88;;;16.61
61977;BMP280;45905;50.570;10.428;2022-10-31T16:08:34;98035.19;;;16.57
61977;BMP280;45905;50.570;10.428;2022-10-31T16:13:54;98036.13;;;16.49
61977;BMP280;45905;50.570;10.428;2022-10-31T16:16:23;98030.03;;;16.44
61977;BMP280;45905;50.570;10.428;2022-10-31T16:21:51;98030.34;;;16.35
61977;BMP280;45905;50.570;10.428;2022-10-31T16:24:48;98038.38;;;16.32
61977;BMP280;45905;50.570;10.428;2022-10-31T16:27:32;98038.97;;;16.27
61977;BMP280;45905;50.570;10.428;2022-10-31T16:30:02;98042.25;;;16.22
61977;BMP280;45905;50.570;10.428;2022-10-31T16:32:51;98041.22;;;16.16
61977;BMP280;45905;50.570;10.428;2022-10-31T16:35:32;98041.78;;;16.12
61977;BMP280;45905;50.570;10.428;2022-10-31T16:37:59;98027.81;;;16.08
61977;BMP280;45905;50.570;10.428;2022-10-31T16:40:26;98023.25;;;16.03
61977;BMP280;45905;50.570;10.428;2022-10-31T16:42:56;98020.28;;;16.00
61977;BMP280;45905;50.570;10.428;2022-10-31T16:45:30;98014.09;;;15.95
61977;BMP280;45905;50.570;10.428;2022-10-31T16:48:10;98017.22;;;15.90
61977;BMP280;45905;50.570;10.428;2022-10-31T16:50:38;98021.91;;;15.87
61977;BMP280;45905;50.570;10.428;2022-10-31T16:53:05;98030.13;;;15.83
61977;BMP280;45905;50.570;10.428;2022-10-31T16:55:57;98033.03;;;15.80
61977;BMP280;45905;50.570;10.428;2022-10-31T16:58:28;98039.28;;;15.77
61977;BMP280;45905;50.570;10.428;2022-10-31T17:00:57;98024.53;;;15.73